createdAt,value
2018-01-08T00:02:35.076Z,5.52
2018-01-08T00:47:34.281Z,5.39
2018-01-08T01:02:34.285Z,5.35
2018-01-08T02:02:35.536Z,5.05
2018-01-08T02:32:34.178Z,5.05
2018-01-08T02:47:34.775Z,5.05
2018-01-08T03:02:35.412Z,5.04
2018-01-08T03:17:34.631Z,5.03
2018-01-08T03:32:35.346Z,4.99
2018-01-08T04:17:34.877Z,4.77
2018-01-08T04:32:38.737Z,4.78
2018-01-08T04:47:35.325Z,4.79
2018-01-08T05:17:36.187Z,4.36
2018-01-08T05:32:35.104Z,4.53
2018-01-08T05:47:34.482Z,4.64
2018-01-08T06:02:34.524Z,4.84
2018-01-08T06:17:35.354Z,5.01
2018-01-08T07:02:35.865Z,5.60
2018-01-08T08:02:35.085Z,6.74
2018-01-08T08:32:34.607Z,7.51
2018-01-08T08:47:34.751Z,8.44
2018-01-08T09:02:34.955Z,10.08
2018-01-08T09:17:34.129Z,10.26
2018-01-08T09:32:37.051Z,10.10
2018-01-08T09:47:34.714Z,9.56
2018-01-08T10:02:46.257Z,9.49
2018-01-08T10:17:46.170Z,9.78
2018-01-08T10:32:34.324Z,10.37
2018-01-08T10:47:40.188Z,10.96
2018-01-08T11:02:40.343Z,13.07
2018-01-08T11:17:34.392Z,12.27
2018-01-08T11:32:34.281Z,11.59
2018-01-08T11:47:34.811Z,11.24
2018-01-08T12:02:34.874Z,11.12
2018-01-08T12:17:34.090Z,10.83
2018-01-08T12:32:34.576Z,10.30
2018-01-08T12:47:33.415Z,9.83
2018-01-08T13:02:34.061Z,9.53
2018-01-08T13:17:34.798Z,9.11
2018-01-08T13:32:34.965Z,9.15
2018-01-08T13:47:34.463Z,9.43
2018-01-08T14:02:34.383Z,9.19
2018-01-08T14:17:36.213Z,8.97
2018-01-08T14:32:36.301Z,8.77
2018-01-08T14:47:34.649Z,8.49
2018-01-08T15:02:34.592Z,8.30
2018-01-08T15:17:34.478Z,7.97
2018-01-08T15:32:35.976Z,7.73
2018-01-08T15:47:34.874Z,7.57
2018-01-08T16:02:36.842Z,7.44
2018-01-08T16:17:34.763Z,7.32
2018-01-08T16:32:35.163Z,7.12
2018-01-08T16:47:35.114Z,6.85
2018-01-08T17:02:37.116Z,6.67
2018-01-08T17:17:34.953Z,6.60
2018-01-08T17:32:37.390Z,6.54
2018-01-08T17:47:35.404Z,6.52
2018-01-08T18:17:38.280Z,6.36
2018-01-08T19:02:35.136Z,6.02
2018-01-08T20:17:34.240Z,5.63
2018-01-08T21:02:40.586Z,5.40
2018-01-08T21:17:35.051Z,5.34
2018-01-08T22:17:35.198Z,5.10
2018-01-08T22:32:34.658Z,5.02
2018-01-08T22:47:35.318Z,5.04
2018-01-08T23:32:34.874Z,4.87
